createdAt,value
2023-04-12T00:00:50.907Z,7.10
2023-04-12T00:03:22.117Z,4.90
2023-04-12T00:05:55.308Z,4.77
2023-04-12T00:08:26.286Z,3.90
2023-04-12T00:10:54.871Z,5.13
2023-04-12T00:13:23.090Z,4.70
2023-04-12T00:15:51.668Z,4.20
2023-04-12T00:18:21.778Z,4.10
2023-04-12T00:20:50.870Z,2.60
2023-04-12T00:23:19.280Z,6.00
2023-04-12T00:25:47.668Z,3.03
2023-04-12T00:28:16.627Z,3.80
2023-04-12T00:30:45.943Z,3.60
2023-04-12T00:33:14.272Z,5.77
2023-04-12T00:35:44.099Z,3.97
2023-04-12T00:38:13.013Z,4.10
2023-04-12T00:40:42.733Z,5.47
2023-04-12T00:43:18.696Z,6.37
2023-04-12T00:45:48.424Z,4.37
2023-04-12T00:48:17.524Z,3.27
2023-04-12T00:50:47.568Z,4.20
2023-04-12T00:53:17.712Z,3.37
2023-04-12T00:55:46.887Z,6.80
2023-04-12T00:58:15.998Z,3.40
2023-04-12T01:00:50.240Z,5.03
2023-04-12T01:03:22.954Z,3.57
2023-04-12T01:06:01.186Z,4.20
2023-04-12T01:08:40.551Z,2.93
2023-04-12T01:11:16.105Z,3.83
2023-04-12T01:13:50.098Z,4.27
2023-04-12T01:16:26.450Z,2.20
2023-04-12T01:19:03.791Z,5.00
2023-04-12T01:21:46.300Z,3.63
2023-04-12T01:24:29.030Z,3.93
2023-04-12T01:27:00.754Z,4.50
2023-04-12T01:29:32.316Z,3.23
2023-04-12T01:32:02.369Z,2.07
2023-04-12T01:34:33.439Z,2.73
2023-04-12T01:37:03.997Z,3.73
2023-04-12T01:39:33.661Z,4.63
2023-04-12T01:42:03.630Z,3.33
2023-04-12T01:44:33.387Z,5.03
2023-04-12T01:47:01.722Z,5.47
2023-04-12T01:49:37.572Z,4.30
2023-04-12T01:52:13.154Z,5.03
2023-04-12T01:54:45.745Z,3.17
2023-04-12T01:57:16.205Z,2.73
2023-04-12T01:59:48.865Z,4.13
2023-04-12T02:02:18.214Z,4.13
2023-04-12T02:04:47.982Z,4.30
2023-04-12T02:07:18.866Z,3.40
2023-04-12T02:09:47.259Z,3.63
2023-04-12T02:12:15.538Z,6.47
2023-04-12T02:14:45.465Z,5.60
2023-04-12T02:17:14.249Z,5.30
2023-04-12T02:19:42.681Z,4.37
2023-04-12T02:22:12.348Z,5.63
2023-04-12T02:24:41.456Z,4.30
2023-04-12T02:27:09.759Z,6.13
2023-04-12T02:29:39.486Z,5.73
2023-04-12T02:32:09.172Z,6.87
2023-04-12T02:34:38.405Z,5.93
2023-04-12T02:37:17.779Z,4.67
2023-04-12T02:39:46.161Z,3.80
2023-04-12T02:42:14.514Z,4.77
2023-04-12T02:44:47.700Z,7.30
2023-04-12T02:47:18.122Z,5.67
2023-04-12T02:49:49.539Z,5.27
2023-04-12T02:52:20.131Z,6.37
2023-04-12T02:55:09.953Z,7.63
2023-04-12T02:57:38.350Z,6.60
2023-04-12T03:00:12.051Z,7.80
2023-04-12T03:02:45.950Z,6.50
2023-04-12T03:05:22.870Z,7.37
2023-04-12T03:07:52.186Z,7.47
2023-04-12T03:10:25.775Z,5.00
2023-04-12T03:13:05.004Z,8.37
2023-04-12T03:15:49.562Z,4.43
2023-04-12T03:18:21.765Z,5.20
2023-04-12T03:20:53.555Z,7.80
2023-04-12T03:23:22.080Z,5.03
2023-04-12T03:25:59.437Z,6.57
2023-04-12T03:28:32.664Z,4.90
2023-04-12T03:31:03.045Z,4.50
2023-04-12T03:33:41.633Z,4.97
2023-04-12T03:36:21.236Z,4.73
2023-04-12T03:38:54.856Z,4.10
2023-04-12T03:41:24.338Z,4.20
2023-04-12T03:43:52.723Z,5.30
2023-04-12T03:46:21.807Z,5.60
2023-04-12T03:48:58.724Z,6.63
2023-04-12T03:51:30.826Z,4.33
2023-04-12T03:54:04.812Z,7.00
2023-04-12T03:56:46.375Z,4.97
2023-04-12T03:59:22.740Z,8.50
2023-04-12T04:01:52.218Z,4.90
2023-04-12T04:04:22.507Z,4.90
2023-04-12T04:06:54.913Z,7.63
2023-04-12T04:09:23.496Z,4.40
2023-04-12T04:11:53.688Z,5.73
2023-04-12T04:14:23.309Z,2.93
2023-04-12T04:16:53.142Z,7.90
2023-04-12T04:19:23.895Z,7.70
2023-04-12T04:21:52.792Z,7.27
2023-04-12T04:24:22.465Z,4.13
2023-04-12T04:26:57.333Z,6.20
2023-04-12T04:29:29.178Z,5.07
2023-04-12T04:31:58.548Z,6.30
2023-04-12T04:34:29.408Z,6.03
2023-04-12T04:37:07.986Z,8.03
2023-04-12T04:39:36.319Z,7.40
2023-04-12T04:42:06.717Z,6.33
2023-04-12T04:44:40.144Z,4.73
2023-04-12T04:47:10.967Z,5.60
2023-04-12T04:49:41.261Z,6.83
2023-04-12T04:52:25.567Z,6.53
2023-04-12T04:54:58.196Z,9.03
2023-04-12T04:57:31.057Z,6.43
2023-04-12T04:59:59.463Z,5.13
2023-04-12T05:02:28.590Z,5.57
2023-04-12T05:04:59.980Z,5.20
2023-04-12T05:07:29.375Z,4.30
2023-04-12T05:09:57.676Z,6.63
2023-04-12T05:12:26.054Z,6.87
2023-04-12T05:15:10.747Z,7.97
2023-04-12T05:17:40.001Z,7.13
2023-04-12T05:20:11.966Z,5.60
2023-04-12T05:22:40.752Z,6.33
2023-04-12T05:25:09.819Z,6.70
2023-04-12T05:27:45.993Z,5.63
2023-04-12T05:30:17.518Z,5.77
2023-04-12T05:32:46.543Z,5.13
2023-04-12T05:35:18.235Z,6.87
2023-04-12T05:37:47.986Z,4.33
2023-04-12T05:40:16.399Z,5.67
2023-04-12T05:42:45.429Z,8.57
2023-04-12T05:45:14.566Z,7.37
2023-04-12T05:48:57.045Z,7.13
2023-04-12T05:51:41.013Z,5.90
2023-04-12T05:54:35.129Z,6.50
2023-04-12T05:57:19.449Z,7.80
2023-04-12T06:00:32.807Z,6.83
2023-04-12T06:03:15.485Z,5.63
2023-04-12T06:06:04.644Z,5.60
2023-04-12T06:08:55.056Z,8.40
2023-04-12T06:11:44.271Z,7.37
2023-04-12T06:14:32.527Z,5.77
2023-04-12T06:17:23.225Z,8.03
2023-04-12T06:20:13.885Z,6.23
2023-04-12T06:26:38.811Z,10.03
2023-04-12T06:29:45.426Z,6.73
2023-04-12T06:32:24.446Z,7.50
2023-04-12T06:35:04.351Z,5.60
2023-04-12T06:37:43.146Z,6.53
2023-04-12T06:46:13.282Z,6.97
2023-04-12T06:48:42.143Z,6.57
2023-04-12T06:51:12.001Z,8.00
2023-04-12T06:53:40.764Z,6.63
2023-04-12T06:56:12.996Z,5.57
2023-04-12T08:16:32.644Z,3.40
2023-04-12T08:19:01.179Z,7.60
2023-04-12T08:21:30.149Z,5.30
2023-04-12T08:23:58.811Z,5.50
2023-04-12T08:26:29.741Z,5.23
2023-04-12T08:28:58.548Z,4.60
2023-04-12T08:31:27.117Z,4.43
2023-04-12T08:33:57.796Z,4.37
2023-04-12T08:36:27.281Z,3.10
2023-04-12T08:38:59.741Z,3.70
2023-04-12T08:41:28.566Z,3.77
2023-04-12T08:43:57.172Z,2.97
2023-04-12T08:46:28.223Z,4.20
2023-04-12T08:48:58.433Z,3.77
2023-04-12T08:51:27.480Z,5.40
2023-04-12T08:53:56.707Z,4.77
2023-04-12T08:56:26.066Z,2.83
2023-04-12T08:58:54.677Z,3.70
2023-04-12T09:01:23.231Z,3.57
2023-04-12T09:03:51.992Z,5.60
2023-04-12T09:06:21.962Z,4.60
2023-04-12T09:08:54.997Z,4.43
2023-04-12T09:11:24.751Z,3.53
2023-04-12T09:13:53.270Z,4.90
2023-04-12T09:16:40.568Z,6.33
2023-04-12T09:19:10.505Z,3.90
2023-04-12T09:21:53.723Z,5.57
2023-04-12T09:24:24.275Z,7.87
2023-04-12T09:27:03.934Z,6.20
2023-04-12T09:30:08.487Z,4.50
2023-04-12T09:32:37.232Z,5.33
2023-04-12T09:35:06.472Z,6.60
2023-04-12T09:47:53.511Z,8.13
2023-04-12T09:54:09.284Z,11.70
2023-04-12T09:56:49.516Z,6.43
2023-04-12T09:59:24.089Z,7.80
2023-04-12T10:02:20.930Z,10.57
2023-04-12T10:05:13.235Z,6.90
2023-04-12T10:07:53.401Z,8.90
2023-04-12T10:10:41.664Z,7.33
2023-04-12T10:13:12.518Z,6.60
2023-04-12T10:15:46.695Z,6.53
2023-04-12T10:18:17.542Z,7.43
2023-04-12T10:21:22.970Z,7.50
2023-04-12T10:23:56.680Z,6.53
2023-04-12T10:26:39.281Z,5.77
2023-04-12T10:29:31.103Z,6.60
2023-04-12T10:32:23.304Z,9.90
2023-04-12T10:35:00.790Z,7.20
2023-04-12T10:38:06.314Z,3.93
2023-04-12T10:40:56.582Z,6.57
2023-04-12T10:43:30.301Z,9.40
2023-04-12T10:46:04.264Z,5.67
2023-04-12T10:48:36.329Z,7.73
2023-04-12T10:51:15.590Z,7.70
2023-04-12T10:53:46.849Z,9.13
2023-04-12T10:56:40.836Z,6.43
2023-04-12T11:00:12.315Z,7.63
2023-04-12T11:21:54.097Z,5.83
2023-04-12T11:24:59.380Z,8.13
2023-04-12T11:27:47.674Z,6.27
2023-04-12T11:30:37.300Z,6.00
2023-04-12T11:33:13.108Z,7.20
2023-04-12T11:36:01.028Z,5.20
2023-04-12T11:38:59.573Z,6.13
2023-04-12T11:41:30.898Z,5.40
2023-04-12T11:44:25.425Z,5.70
2023-04-12T11:47:04.193Z,8.43
2023-04-12T11:49:35.416Z,6.60
2023-04-12T11:52:16.704Z,7.63
2023-04-12T11:55:01.961Z,7.67
2023-04-12T11:57:31.214Z,7.53
2023-04-12T12:00:00.556Z,7.10
2023-04-12T12:02:34.622Z,7.50
2023-04-12T12:05:08.961Z,5.87
2023-04-12T12:07:39.495Z,6.37
2023-04-12T12:11:08.508Z,5.27
2023-04-12T12:17:36.182Z,7.23
2023-04-12T12:20:31.633Z,5.33
2023-04-12T12:23:51.508Z,6.07
2023-04-12T12:26:37.773Z,6.70
2023-04-12T12:29:27.718Z,5.67
2023-04-12T12:31:58.352Z,7.30
2023-04-12T12:34:34.560Z,6.00
2023-04-12T12:37:05.233Z,5.63
2023-04-12T12:40:07.042Z,7.03
2023-04-12T12:43:06.937Z,7.67
2023-04-12T12:46:13.073Z,8.90
2023-04-12T12:51:26.853Z,6.53
2023-04-12T12:54:10.607Z,6.97
2023-04-12T12:56:39.527Z,6.73
2023-04-12T12:59:20.029Z,9.00
2023-04-12T13:01:48.775Z,5.43
2023-04-12T13:04:17.534Z,4.40
2023-04-12T13:06:46.482Z,8.00
2023-04-12T13:09:18.141Z,6.63
2023-04-12T13:11:48.929Z,25.63
2023-04-12T13:14:23.163Z,9.37
2023-04-12T13:16:52.724Z,5.03
2023-04-12T13:19:29.062Z,3.97
2023-04-12T13:22:02.295Z,5.20
2023-04-12T13:24:32.634Z,3.93
2023-04-12T13:27:02.969Z,8.50
2023-04-12T13:29:34.837Z,5.47
2023-04-12T13:32:09.723Z,6.53
2023-04-12T13:35:07.957Z,5.07
2023-04-12T13:37:36.523Z,5.97
2023-04-12T13:40:05.868Z,4.97
2023-04-12T13:42:34.502Z,6.10
2023-04-12T13:45:17.336Z,5.73
2023-04-12T13:47:46.390Z,6.60
2023-04-12T13:50:14.955Z,7.93
2023-04-12T13:52:43.429Z,6.10
2023-04-12T13:55:11.920Z,5.70
2023-04-12T13:57:40.392Z,5.03
2023-04-12T14:00:12.153Z,5.27
2023-04-12T14:02:40.690Z,5.87
2023-04-12T14:05:11.458Z,5.20
2023-04-12T14:07:43.334Z,7.13
2023-04-12T14:10:12.249Z,5.13
2023-04-12T14:12:40.677Z,8.57
2023-04-12T14:15:11.648Z,6.23
2023-04-12T14:17:40.809Z,5.13
2023-04-12T14:20:12.658Z,5.67
2023-04-12T14:22:41.448Z,5.90
2023-04-12T14:25:11.895Z,6.30
2023-04-12T14:27:40.456Z,5.80
2023-04-12T14:30:14.510Z,4.60
2023-04-12T14:32:46.783Z,6.43
2023-04-12T14:35:16.886Z,7.17
2023-04-12T14:37:46.283Z,5.73
2023-04-12T14:40:15.552Z,6.27
2023-04-12T14:42:43.844Z,6.17
2023-04-12T14:45:14.824Z,8.60
2023-04-12T14:47:43.282Z,6.80
2023-04-12T14:53:19.654Z,5.43
2023-04-12T14:55:48.272Z,4.57
2023-04-12T14:58:17.067Z,5.60
2023-04-12T15:00:47.856Z,2.47
2023-04-12T15:03:17.253Z,3.80
2023-04-12T15:05:46.006Z,4.20
2023-04-12T15:08:14.413Z,3.33
2023-04-12T17:15:01.530Z,11.67
2023-04-12T17:17:30.242Z,9.23
2023-04-12T17:19:58.767Z,9.63
2023-04-12T17:22:27.508Z,7.57
2023-04-12T17:24:56.043Z,31.20
2023-04-12T17:27:24.646Z,9.77
2023-04-12T17:29:53.161Z,14.80
2023-04-12T17:32:23.177Z,9.43
2023-04-12T17:34:55.209Z,7.57
2023-04-12T17:37:24.407Z,13.37
2023-04-12T17:39:53.343Z,10.80
2023-04-12T17:42:22.846Z,13.50
2023-04-12T17:44:51.304Z,10.33
2023-04-12T17:47:19.884Z,14.20
2023-04-12T17:53:01.835Z,10.97
2023-04-12T17:55:30.480Z,16.07
2023-04-12T17:57:59.227Z,15.60
2023-04-12T18:00:27.867Z,11.93
2023-04-12T18:02:56.615Z,12.77
2023-04-12T18:05:26.788Z,11.87
2023-04-12T18:07:57.068Z,12.27
2023-04-12T18:10:26.801Z,14.03
2023-04-12T18:12:56.459Z,15.03
2023-04-12T18:15:25.114Z,14.57
2023-04-12T18:17:53.877Z,15.43
2023-04-12T18:20:22.660Z,16.53
2023-04-12T18:23:03.159Z,14.23
2023-04-12T18:25:32.855Z,13.53
2023-04-12T18:28:04.209Z,14.30
2023-04-12T18:30:32.808Z,17.27
2023-04-12T18:33:03.955Z,14.47
2023-04-12T18:35:32.768Z,18.17
2023-04-12T18:38:02.672Z,14.20
2023-04-12T18:40:31.218Z,13.43
2023-04-12T18:43:02.885Z,16.03
2023-04-12T18:45:31.522Z,17.47
2023-04-12T18:48:00.300Z,14.37
2023-04-12T18:50:29.304Z,15.13
2023-04-12T18:52:57.784Z,17.90
2023-04-12T18:55:27.791Z,16.70
2023-04-12T18:57:56.503Z,16.00
2023-04-12T19:00:25.145Z,14.83
2023-04-12T19:02:53.723Z,16.60
2023-04-12T19:05:22.848Z,11.77
2023-04-12T19:07:52.375Z,14.50
2023-04-12T19:10:24.307Z,17.07
2023-04-12T19:12:55.008Z,13.80
2023-04-12T19:15:23.458Z,18.30
2023-04-12T19:17:52.159Z,19.10
2023-04-12T19:20:20.944Z,15.37
2023-04-12T19:22:51.329Z,19.30
2023-04-12T19:25:20.448Z,15.60
2023-04-12T19:27:50.333Z,14.73
2023-04-12T19:30:23.621Z,17.53
2023-04-12T19:32:53.450Z,16.50
2023-04-12T19:35:22.812Z,14.30
2023-04-12T19:37:54.545Z,17.13
2023-04-12T19:40:23.548Z,13.33
2023-04-12T19:42:53.381Z,15.77
2023-04-12T19:45:26.286Z,17.20
2023-04-12T19:47:55.982Z,17.07
2023-04-12T19:50:25.534Z,14.80
2023-04-12T19:52:55.293Z,16.93
2023-04-12T19:55:24.349Z,14.67
2023-04-12T19:57:53.435Z,18.13
2023-04-12T20:00:25.409Z,16.10
2023-04-12T20:02:55.862Z,23.10
2023-04-12T20:05:25.254Z,18.17
2023-04-12T20:07:55.994Z,13.23
2023-04-12T20:10:25.013Z,16.03
2023-04-12T20:12:54.147Z,17.07
2023-04-12T20:15:24.576Z,15.80
2023-04-12T20:17:54.116Z,17.70
2023-04-12T20:20:24.464Z,14.50
2023-04-12T20:22:53.408Z,14.63
2023-04-12T20:25:22.338Z,20.33
2023-04-12T20:27:53.163Z,15.43
2023-04-12T20:30:24.237Z,15.57
2023-04-12T20:32:55.495Z,17.13
2023-04-12T20:35:24.283Z,14.70
2023-04-12T20:37:52.974Z,13.87
2023-04-12T20:40:23.787Z,16.73
2023-04-12T20:42:52.744Z,12.10
2023-04-12T20:45:24.753Z,14.43
2023-04-12T20:47:53.841Z,19.63
2023-04-12T20:50:24.593Z,15.67
2023-04-12T20:52:53.709Z,20.07
2023-04-12T20:55:33.968Z,15.63
2023-04-12T20:58:03.684Z,15.43
2023-04-12T21:00:34.315Z,16.17
2023-04-12T21:03:03.243Z,20.00
2023-04-12T21:05:33.809Z,20.00
2023-04-12T21:08:02.430Z,20.07
2023-04-12T21:10:30.803Z,13.63
2023-04-12T21:13:01.998Z,13.60
2023-04-12T21:15:31.979Z,17.47
2023-04-12T21:18:02.381Z,15.90
2023-04-12T21:20:31.290Z,12.43
2023-04-12T21:22:59.721Z,12.70
2023-04-12T21:25:28.140Z,14.43
2023-04-12T21:27:56.551Z,13.03
2023-04-12T21:30:25.175Z,15.83
2023-04-12T21:32:55.393Z,12.67
2023-04-12T21:35:25.872Z,16.90
2023-04-12T21:37:54.922Z,16.20
2023-04-12T21:40:23.694Z,13.93
2023-04-12T21:42:52.048Z,15.20
2023-04-12T21:45:24.256Z,15.63
2023-04-12T21:47:54.352Z,19.93
2023-04-12T21:50:24.291Z,16.00
2023-04-12T21:52:52.680Z,15.20
2023-04-12T21:55:24.272Z,14.97
2023-04-12T21:57:53.000Z,18.37
2023-04-12T22:00:22.098Z,15.10
2023-04-12T22:02:50.824Z,18.33
2023-04-12T22:05:19.515Z,20.27
2023-04-12T22:07:50.233Z,13.77
2023-04-12T22:10:20.365Z,17.73
2023-04-12T22:12:50.362Z,15.63
2023-04-12T22:15:19.627Z,16.87
2023-04-12T22:17:48.490Z,16.83
2023-04-12T22:20:16.769Z,16.07
2023-04-12T22:22:45.141Z,22.30
2023-04-12T22:25:15.599Z,20.83
2023-04-12T22:27:46.388Z,16.10
2023-04-12T22:30:15.803Z,20.47
2023-04-12T22:32:44.161Z,19.63
2023-04-12T22:35:12.788Z,19.47
2023-04-12T22:37:43.096Z,18.23
2023-04-12T22:40:13.583Z,22.03
2023-04-12T22:42:46.922Z,17.63
2023-04-12T22:45:16.033Z,15.00
2023-04-12T22:47:44.723Z,21.30
2023-04-12T22:50:13.643Z,17.73
2023-04-12T22:52:42.113Z,18.03
2023-04-12T22:55:12.844Z,21.80
2023-04-12T22:57:41.169Z,19.50
2023-04-12T23:00:16.525Z,17.50
2023-04-12T23:02:46.744Z,15.67
2023-04-12T23:05:16.330Z,17.67
2023-04-12T23:07:44.834Z,17.13
2023-04-12T23:10:13.299Z,22.27
2023-04-12T23:12:41.698Z,17.07
2023-04-12T23:15:12.679Z,18.67
2023-04-12T23:17:41.075Z,15.87
2023-04-12T23:20:13.257Z,19.13
2023-04-12T23:22:57.257Z,16.83
2023-04-12T23:25:37.956Z,18.77
2023-04-12T23:28:13.000Z,19.27
2023-04-12T23:30:47.840Z,15.63
2023-04-12T23:33:18.202Z,18.27
2023-04-12T23:35:47.295Z,21.77
2023-04-12T23:38:23.062Z,20.67
2023-04-12T23:40:55.505Z,19.13
2023-04-12T23:43:25.048Z,16.70
2023-04-12T23:45:55.100Z,20.60
2023-04-12T23:48:24.135Z,21.27
2023-04-12T23:50:52.699Z,15.20
2023-04-12T23:53:21.731Z,20.03
2023-04-12T23:55:52.021Z,19.27
2023-04-12T23:58:25.405Z,14.70
